Time;durP1;ratioP1;P1;durP2;ratioP2;P2;SDS_P1;SDS_P2;PMS_P1;PMS_P2;Temp;Humidity;BMP_temperature;BMP_pressure;BME280_temperature;BME280_humidity;BME280_pressure;Samples;Min_cycle;Max_cycle;Signal;HPM_P1;HPM_P2
2022/12/20 00:00:01;;;;;;;36.17;18.13;;;2.30;99.90;;;;;;5091494;28;20028;-74
2022/12/20 00:02:27;;;;;;;31.77;16.17;;;2.30;99.90;;;;;;5092065;28;20107;-74
2022/12/20 00:04:52;;;;;;;38.83;17.43;;;2.30;99.90;;;;;;5091327;28;20385;-74
2022/12/20 00:07:18;;;;;;;31.97;16.60;;;2.30;99.90;;;;;;5090553;28;20036;-74
2022/12/20 00:09:43;;;;;;;33.43;16.53;;;2.30;99.90;;;;;;5091406;28;20024;-74
2022/12/20 00:12:09;;;;;;;35.50;17.90;;;2.40;99.90;;;;;;5091099;28;20111;-74
2022/12/20 00:14:34;;;;;;;35.13;16.47;;;2.40;99.90;;;;;;5091683;28;20404;-74
2022/12/20 00:17:00;;;;;;;29.30;16.17;;;2.40;99.90;;;;;;5092285;28;20048;-74
2022/12/20 00:19:26;;;;;;;31.50;16.70;;;2.40;99.90;;;;;;5090688;28;20028;-74
2022/12/20 00:21:51;;;;;;;35.93;16.60;;;2.40;99.90;;;;;;5091035;28;20082;-74
2022/12/20 00:24:17;;;;;;;37.33;15.37;;;2.40;99.90;;;;;;5090621;28;20028;-74
2022/12/20 00:26:42;;;;;;;31.67;15.53;;;2.50;99.90;;;;;;5091089;28;20036;-73
2022/12/20 00:29:08;;;;;;;31.40;15.70;;;2.40;99.90;;;;;;5092394;28;20027;-74
2022/12/20 00:31:34;;;;;;;30.17;15.33;;;2.40;99.90;;;;;;5091824;28;20517;-74
2022/12/20 00:34:00;;;;;;;36.03;16.13;;;2.40;99.90;;;;;;5092221;28;20405;-74
2022/12/20 00:36:28;;;;;;;29.90;15.33;;;2.40;99.90;;;;;;5092008;28;20027;-74
2022/12/20 00:38:55;;;;;;;29.70;15.23;;;2.50;99.90;;;;;;5090988;28;20077;-74
2022/12/20 00:41:23;;;;;;;29.63;14.80;;;2.50;99.90;;;;;;5090111;28;20032;-74
2022/12/20 00:43:49;;;;;;;27.87;15.23;;;2.50;99.90;;;;;;5090671;28;20078;-74
2022/12/20 00:46:17;;;;;;;29.67;15.93;;;2.50;99.90;;;;;;5093686;28;20369;-77
2022/12/20 00:48:43;;;;;;;28.23;15.33;;;2.50;99.90;;;;;;5095824;28;20453;-74
2022/12/20 00:51:12;;;;;;;30.40;15.27;;;2.50;99.90;;;;;;5095668;28;20030;-74
2022/12/20 00:53:38;;;;;;;29.77;15.57;;;2.50;99.90;;;;;;5095128;28;20038;-74
2022/12/20 00:56:05;;;;;;;32.23;16.20;;;2.50;99.90;;;;;;5094358;28;20074;-74
2022/12/20 00:58:32;;;;;;;31.10;15.73;;;2.50;99.90;;;;;;5093835;28;20372;-74
2022/12/20 01:00:58;;;;;;;29.87;15.87;;;2.60;99.90;;;;;;5094403;28;20028;-74
2022/12/20 01:03:24;;;;;;;27.97;14.80;;;2.50;99.90;;;;;;5093836;28;20051;-73
2022/12/20 01:05:56;;;;;;;27.77;14.47;;;2.60;99.90;;;;;;5094220;28;20020;-74
2022/12/20 01:08:22;;;;;;;27.73;14.63;;;2.50;99.90;;;;;;5093532;28;20107;-74
2022/12/20 01:11:03;;;;;;;29.23;14.57;;;2.50;99.90;;;;;;5093830;28;20469;-74
2022/12/20 01:13:29;;;;;;;28.67;14.90;;;2.50;99.90;;;;;;5093328;28;20048;-74
2022/12/20 01:15:55;;;;;;;27.67;14.57;;;2.50;99.90;;;;;;5094153;28;20054;-74
2022/12/20 01:18:21;;;;;;;28.60;15.33;;;2.60;99.90;;;;;;5093164;28;20505;-74
2022/12/20 01:20:47;;;;;;;24.83;13.50;;;2.60;99.90;;;;;;5094180;28;20084;-74
2022/12/20 01:23:13;;;;;;;26.40;13.60;;;2.60;99.90;;;;;;5093907;28;20035;-74
2022/12/20 01:25:38;;;;;;;31.80;14.50;;;2.60;99.90;;;;;;5093334;28;20035;-74
2022/12/20 01:28:04;;;;;;;27.47;15.33;;;2.60;99.90;;;;;;5094075;28;20021;-74
2022/12/20 01:30:29;;;;;;;27.13;13.90;;;2.50;99.90;;;;;;5094343;28;20513;-74
2022/12/20 01:32:55;;;;;;;31.40;14.33;;;2.60;99.90;;;;;;5093735;28;20412;-74
2022/12/20 01:35:20;;;;;;;30.77;14.57;;;2.60;99.90;;;;;;5092800;28;20035;-75
2022/12/20 01:37:46;;;;;;;24.87;13.63;;;2.60;99.90;;;;;;5094651;28;20202;-74
2022/12/20 01:40:12;;;;;;;31.43;16.00;;;2.60;99.90;;;;;;5093338;28;20036;-74
2022/12/20 01:42:37;;;;;;;27.07;13.97;;;2.50;99.90;;;;;;5092607;28;20507;-75
2022/12/20 01:45:12;;;;;;;30.33;15.00;;;2.50;99.90;;;;;;5094619;28;20089;-74
2022/12/20 01:47:38;;;;;;;27.00;14.23;;;2.50;99.90;;;;;;5093910;28;20036;-74
2022/12/20 01:50:07;;;;;;;30.33;14.43;;;2.40;99.90;;;;;;5093243;28;20111;-74
2022/12/20 01:52:44;;;;;;;28.80;14.00;;;2.40;99.90;;;;;;5093526;28;20020;-74
2022/12/20 01:55:20;;;;;;;28.93;15.30;;;2.40;99.90;;;;;;5094151;28;20111;-74
2022/12/20 01:57:52;;;;;;;29.27;14.47;;;2.40;99.90;;;;;;5092829;28;20484;-74
2022/12/20 02:00:19;;;;;;;23.52;13.68;;;2.40;99.90;;;;;;5093239;28;20029;-77
2022/12/20 02:02:46;;;;;;;26.83;14.83;;;2.40;99.90;;;;;;5093986;28;20481;-74
2022/12/20 02:05:13;;;;;;;25.53;13.87;;;2.50;99.90;;;;;;5093955;28;20474;-74
2022/12/20 02:07:42;;;;;;;28.30;13.73;;;2.40;99.90;;;;;;5093845;28;20222;-74
2022/12/20 02:10:10;;;;;;;26.67;13.90;;;2.40;99.90;;;;;;5094358;28;20036;-74
2022/12/20 02:12:41;;;;;;;27.43;13.63;;;2.40;99.90;;;;;;5092407;28;20031;-74
2022/12/20 02:15:16;;;;;;;27.65;14.02;;;2.40;99.90;;;;;;5092488;28;20036;-74
2022/12/20 02:18:02;;;;;;;28.50;13.40;;;2.40;99.90;;;;;;5093062;28;20082;-74
2022/12/20 02:20:58;;;;;;;24.37;13.80;;;2.40;99.90;;;;;;5093513;28;20024;-74
2022/12/20 02:23:59;;;;;;;24.97;14.00;;;2.40;99.90;;;;;;5093013;28;20024;-75
2022/12/20 02:26:24;;;;;;;31.33;14.27;;;2.40;99.90;;;;;;5092112;28;20051;-74
2022/12/20 02:28:53;;;;;;;25.17;13.90;;;2.40;99.90;;;;;;5092320;28;20389;-74
2022/12/20 02:31:26;;;;;;;29.27;13.37;;;2.40;99.90;;;;;;5092106;28;20031;-78
2022/12/20 02:33:54;;;;;;;26.27;13.70;;;2.50;99.90;;;;;;5092361;28;20031;-74
2022/12/20 02:36:20;;;;;;;28.53;14.33;;;2.50;99.90;;;;;;5102020;28;20031;-76
2022/12/20 02:38:45;;;;;;;24.03;13.27;;;2.40;99.90;;;;;;5112551;28;20023;-74
2022/12/20 02:41:23;;;;;;;25.63;14.00;;;2.40;99.90;;;;;;5112720;28;20048;-74
2022/12/20 02:46:39;;;;;;;29.73;14.77;;;2.40;99.90;;;;;;5113200;28;20043;-74
2022/12/20 02:49:10;;;;;;;27.37;13.90;;;2.50;99.90;;;;;;5113700;28;20023;-74
2022/12/20 02:51:38;;;;;;;23.23;11.95;;;2.50;99.90;;;;;;5112008;28;20055;-74
2022/12/20 02:54:04;;;;;;;24.63;12.97;;;2.50;99.90;;;;;;5112637;28;20043;-74
2022/12/20 02:56:36;;;;;;;27.93;13.57;;;2.50;99.90;;;;;;5111958;28;20488;-74
2022/12/20 02:59:08;;;;;;;26.83;14.18;;;2.50;99.90;;;;;;5112476;28;20028;-73
2022/12/20 03:01:36;;;;;;;;;;;2.50;99.90;;;;;;5112297;28;20035;-74
2022/12/20 03:04:03;;;;;;;27.23;13.70;;;2.50;99.90;;;;;;5112358;28;19904;-74
2022/12/20 03:06:32;;;;;;;25.90;14.57;;;2.50;99.90;;;;;;5111806;28;20384;-74
2022/12/20 03:08:58;;;;;;;27.00;14.53;;;2.50;99.90;;;;;;5112607;28;20074;-74
2022/12/20 03:11:23;;;;;;;29.10;14.57;;;2.50;99.90;;;;;;5111627;28;20473;-78
2022/12/20 03:13:49;;;;;;;31.27;15.17;;;2.50;99.90;;;;;;5111727;28;20039;-74
2022/12/20 03:16:14;;;;;;;28.63;14.83;;;2.50;99.90;;;;;;5112014;28;20062;-74
2022/12/20 03:18:40;;;;;;;24.63;13.33;;;2.50;99.90;;;;;;5111247;28;20054;-74
2022/12/20 03:21:06;;;;;;;28.27;14.10;;;2.50;99.90;;;;;;5111692;28;20437;-74
2022/12/20 03:23:32;;;;;;;27.57;14.53;;;2.50;99.90;;;;;;5111396;28;20034;-74
2022/12/20 03:25:57;;;;;;;24.40;13.73;;;2.50;99.90;;;;;;5111649;28;20388;-74
2022/12/20 03:28:23;;;;;;;25.60;13.30;;;2.50;99.90;;;;;;5111326;28;20031;-77
2022/12/20 03:30:49;;;;;;;23.97;13.30;;;2.50;99.90;;;;;;5111404;28;20028;-74
2022/12/20 03:33:15;;;;;;;24.97;13.23;;;2.50;99.90;;;;;;5113094;28;20444;-74
2022/12/20 03:35:41;;;;;;;24.07;12.80;;;2.40;99.90;;;;;;5111203;28;20028;-74
2022/12/20 03:38:07;;;;;;;22.70;12.37;;;2.40;99.90;;;;;;5113148;28;20030;-74
2022/12/20 03:40:33;;;;;;;26.83;13.17;;;2.50;99.90;;;;;;5111398;28;20110;-74
2022/12/20 03:42:58;;;;;;;26.43;12.83;;;2.40;99.90;;;;;;5111634;28;20027;-74
2022/12/20 03:45:24;;;;;;;26.07;13.57;;;2.40;99.90;;;;;;5112813;28;20388;-76
2022/12/20 03:47:49;;;;;;;24.20;12.93;;;2.50;99.90;;;;;;5111543;28;20028;-74
2022/12/20 03:50:15;;;;;;;22.97;12.87;;;2.40;99.90;;;;;;5111999;28;20423;-74
2022/12/20 03:52:41;;;;;;;25.80;14.17;;;2.40;99.90;;;;;;5112025;28;20031;-74
2022/12/20 03:55:08;;;;;;;26.17;13.63;;;2.40;99.90;;;;;;5111332;28;20027;-74
2022/12/20 03:57:34;;;;;;;23.90;13.40;;;2.40;99.90;;;;;;5112269;28;20024;-74
2022/12/20 03:59:59;;;;;;;26.47;13.70;;;2.50;99.90;;;;;;5112651;28;20384;-74
2022/12/20 04:02:25;;;;;;;25.50;12.87;;;2.50;99.90;;;;;;5112655;28;20023;-76
2022/12/20 04:04:50;;;;;;;24.93;13.50;;;2.50;99.90;;;;;;5112909;28;20024;-74
2022/12/20 04:07:16;;;;;;;26.77;14.03;;;2.50;99.90;;;;;;5112647;28;20454;-74
2022/12/20 04:09:42;;;;;;;22.83;13.00;;;2.50;99.90;;;;;;5111003;28;20030;-74
2022/12/20 04:12:07;;;;;;;25.63;13.80;;;2.60;99.90;;;;;;5112784;28;20020;-74
2022/12/20 04:14:33;;;;;;;25.00;12.93;;;2.60;99.90;;;;;;5110410;28;20085;-75
2022/12/20 04:16:58;;;;;;;26.67;14.07;;;2.60;99.90;;;;;;5111176;28;20047;-74
2022/12/20 04:19:24;;;;;;;29.77;14.60;;;2.60;99.90;;;;;;5112377;28;20065;-74
2022/12/20 04:21:50;;;;;;;30.20;14.10;;;2.60;99.90;;;;;;5114027;28;20107;-74
2022/12/20 04:24:15;;;;;;;25.20;14.50;;;2.60;99.90;;;;;;5115199;28;20033;-74
2022/12/20 04:26:41;;;;;;;28.77;13.97;;;2.60;99.90;;;;;;5114695;28;20016;-74
2022/12/20 04:29:07;;;;;;;27.60;14.40;;;2.60;99.90;;;;;;5115466;28;20051;-74
2022/12/20 04:31:32;;;;;;;27.07;14.07;;;2.60;99.90;;;;;;5114930;28;20035;-74
2022/12/20 04:33:58;;;;;;;25.63;12.77;;;2.70;99.90;;;;;;5115245;28;20032;-74
2022/12/20 04:36:24;;;;;;;26.03;13.30;;;2.60;99.90;;;;;;5115162;28;20039;-74
2022/12/20 04:38:49;;;;;;;24.13;14.37;;;2.60;99.90;;;;;;5115615;28;20028;-74
2022/12/20 04:41:21;;;;;;;26.87;13.93;;;2.60;99.90;;;;;;5116210;28;20445;-74
2022/12/20 04:43:49;;;;;;;26.60;13.50;;;2.60;99.90;;;;;;5114121;28;20524;-74
2022/12/20 04:46:15;;;;;;;25.47;13.10;;;2.70;99.90;;;;;;5116082;28;20032;-74
2022/12/20 04:48:40;;;;;;;25.07;13.43;;;2.70;99.90;;;;;;5114539;28;20031;-74
2022/12/20 04:51:06;;;;;;;26.03;13.97;;;2.70;99.90;;;;;;5116175;28;20376;-74
2022/12/20 04:53:46;;;;;;;25.70;13.60;;;2.70;99.90;;;;;;5115383;28;20035;-75
2022/12/20 04:56:17;;;;;;;25.23;12.60;;;2.70;99.90;;;;;;5114973;28;20031;-74
2022/12/20 04:58:43;;;;;;;28.27;13.47;;;2.70;99.90;;;;;;5114014;28;20032;-74
2022/12/20 05:01:09;;;;;;;25.30;12.90;;;2.80;99.90;;;;;;5114454;28;20051;-74
2022/12/20 05:03:34;;;;;;;24.17;12.93;;;2.80;99.90;;;;;;5113755;28;20464;-74
2022/12/20 05:06:00;;;;;;;26.23;13.73;;;2.80;99.90;;;;;;5115661;28;20023;-74
2022/12/20 05:08:26;;;;;;;29.33;13.67;;;2.80;99.90;;;;;;5114352;28;20481;-74
2022/12/20 05:10:52;;;;;;;28.63;14.20;;;2.80;99.90;;;;;;5115355;28;20449;-74
2022/12/20 05:13:17;;;;;;;29.90;14.13;;;2.80;99.90;;;;;;5114535;28;20047;-74
2022/12/20 05:15:43;;;;;;;25.53;13.47;;;2.80;99.90;;;;;;5114800;28;20031;-74
2022/12/20 05:18:10;;;;;;;26.43;14.23;;;2.80;99.90;;;;;;5115376;28;20515;-73
2022/12/20 05:20:35;;;;;;;29.23;13.67;;;2.80;99.90;;;;;;5115173;28;20028;-75
2022/12/20 05:28:33;;;;;;;23.63;12.13;;;2.90;99.90;;;;;;5115105;28;20499;-76
2022/12/20 05:30:59;;;;;;;27.57;13.70;;;2.90;99.90;;;;;;5115567;28;20028;-74
2022/12/20 05:33:26;;;;;;;26.37;12.70;;;2.90;99.90;;;;;;5113234;28;20027;-74
2022/12/20 05:35:51;;;;;;;24.17;12.97;;;2.90;99.90;;;;;;5113599;28;20184;-74
2022/12/20 05:38:17;;;;;;;29.80;14.67;;;2.90;99.90;;;;;;5114015;28;20536;-74
2022/12/20 05:40:43;;;;;;;24.80;13.00;;;2.90;99.90;;;;;;5113446;28;20024;-74
2022/12/20 05:43:08;;;;;;;24.97;12.53;;;2.90;99.90;;;;;;5113595;28;20027;-74
2022/12/20 05:45:34;;;;;;;22.20;13.23;;;2.90;99.90;;;;;;5114098;28;20456;-77
2022/12/20 05:48:01;;;;;;;27.27;13.07;;;2.90;99.90;;;;;;5114994;28;20019;-74
2022/12/20 05:50:26;;;;;;;27.90;14.07;;;2.90;99.90;;;;;;5113766;28;20027;-74
2022/12/20 05:52:52;;;;;;;24.67;12.43;;;3.00;99.90;;;;;;5114432;28;20100;-74
2022/12/20 05:55:18;;;;;;;26.27;13.73;;;3.00;99.90;;;;;;5114782;28;20024;-74
2022/12/20 05:57:43;;;;;;;25.90;13.43;;;3.00;99.90;;;;;;5113950;28;20103;-74
2022/12/20 06:00:10;;;;;;;24.20;12.90;;;3.00;99.90;;;;;;5114976;28;20020;-74
2022/12/20 06:02:36;;;;;;;26.87;13.10;;;3.00;99.90;;;;;;5113160;28;20024;-75
2022/12/20 06:05:02;;;;;;;25.83;13.43;;;3.00;99.90;;;;;;5113730;28;20372;-74
2022/12/20 06:07:28;;;;;;;27.47;13.90;;;3.00;99.90;;;;;;5113465;28;20461;-74
2022/12/20 06:09:54;;;;;;;27.87;13.40;;;3.00;99.90;;;;;;5112478;28;20043;-74
2022/12/20 06:12:20;;;;;;;28.70;14.67;;;3.00;99.90;;;;;;5113031;28;20529;-74
2022/12/20 06:14:46;;;;;;;26.90;14.37;;;3.00;99.90;;;;;;5112013;28;20047;-75
2022/12/20 06:17:11;;;;;;;29.33;14.57;;;3.00;99.90;;;;;;5114492;28;20043;-74
2022/12/20 06:19:40;;;;;;;29.83;13.87;;;3.10;99.90;;;;;;5112669;28;20024;-75
2022/12/20 06:22:07;;;;;;;28.33;13.80;;;3.10;99.90;;;;;;5114485;28;20022;-74
2022/12/20 06:24:33;;;;;;;26.67;13.67;;;3.00;99.90;;;;;;5113090;28;20445;-76
2022/12/20 06:26:59;;;;;;;24.90;13.67;;;3.10;99.90;;;;;;5112750;28;20035;-74
2022/12/20 06:29:24;;;;;;;30.27;13.97;;;3.10;99.90;;;;;;5114629;28;20019;-74
2022/12/20 06:31:50;;;;;;;28.00;14.50;;;3.10;99.90;;;;;;5112338;28;20036;-74
2022/12/20 06:34:16;;;;;;;27.20;13.37;;;3.10;99.90;;;;;;5112655;28;20524;-74
2022/12/20 06:36:42;;;;;;;30.10;13.77;;;3.10;99.90;;;;;;5111885;28;20038;-75
2022/12/20 06:39:08;;;;;;;30.10;13.70;;;3.10;99.90;;;;;;5113895;28;20095;-74
2022/12/20 06:41:34;;;;;;;25.27;13.50;;;3.10;99.90;;;;;;5112269;28;20024;-78
2022/12/20 06:44:00;;;;;;;24.43;13.03;;;3.10;99.90;;;;;;5111864;28;20032;-74
2022/12/20 06:46:26;;;;;;;25.07;13.03;;;3.00;99.90;;;;;;5112448;28;20088;-74
2022/12/20 06:48:52;;;;;;;27.40;14.10;;;3.10;99.90;;;;;;5111793;28;20126;-74
2022/12/20 06:51:18;;;;;;;26.10;13.60;;;3.10;99.90;;;;;;5112456;28;20027;-74
2022/12/20 06:53:43;;;;;;;30.43;13.97;;;3.10;99.90;;;;;;5111620;28;20031;-74
2022/12/20 06:56:09;;;;;;;23.63;12.60;;;3.10;99.90;;;;;;5112597;28;20028;-74
2022/12/20 06:58:35;;;;;;;24.37;12.57;;;3.10;99.90;;;;;;5113719;28;20480;-77
2022/12/20 07:01:00;;;;;;;21.17;12.30;;;3.10;99.90;;;;;;5112157;28;20118;-74
2022/12/20 07:03:27;;;;;;;22.50;12.37;;;3.10;99.90;;;;;;5113907;28;20097;-74
2022/12/20 07:05:54;;;;;;;24.50;11.47;;;3.10;99.90;;;;;;5112996;28;20024;-74
2022/12/20 07:08:20;;;;;;;22.67;11.53;;;3.20;99.90;;;;;;5112490;28;20077;-74
2022/12/20 07:10:46;;;;;;;19.13;11.43;;;3.20;99.90;;;;;;5111693;28;20057;-74
2022/12/20 07:13:11;;;;;;;25.47;11.80;;;3.20;99.90;;;;;;5112127;28;20044;-74
2022/12/20 07:15:37;;;;;;;20.60;12.43;;;3.20;99.90;;;;;;5111996;28;20074;-76
2022/12/20 07:18:02;;;;;;;19.90;11.60;;;3.20;99.90;;;;;;5111948;28;20051;-74
2022/12/20 07:20:29;;;;;;;24.53;12.43;;;3.20;99.90;;;;;;5112285;28;20457;-74
2022/12/20 07:22:54;;;;;;;23.70;12.33;;;3.20;99.90;;;;;;5113048;28;20038;-74
2022/12/20 07:25:20;;;;;;;26.80;12.63;;;3.20;99.90;;;;;;5112188;28;20023;-74
2022/12/20 07:27:49;;;;;;;26.53;13.37;;;3.20;99.90;;;;;;5111410;28;20028;-74
2022/12/20 07:30:15;;;;;;;24.73;12.93;;;3.30;99.90;;;;;;5111939;28;20023;-74
2022/12/20 07:32:41;;;;;;;21.83;12.33;;;3.30;99.90;;;;;;5111195;28;20482;-75
2022/12/20 07:35:09;;;;;;;24.90;12.87;;;3.30;99.90;;;;;;5113351;28;20031;-74
2022/12/20 07:37:35;;;;;;;23.63;12.73;;;3.20;99.90;;;;;;5111732;28;20024;-74
2022/12/20 07:40:00;;;;;;;23.10;12.43;;;3.20;99.90;;;;;;5112593;28;20557;-74
2022/12/20 07:42:26;;;;;;;23.73;12.23;;;3.30;99.90;;;;;;5111825;28;20419;-74
2022/12/20 07:44:52;;;;;;;22.63;12.13;;;3.30;99.90;;;;;;5111265;28;20032;-74
2022/12/20 07:47:17;;;;;;;25.03;12.60;;;3.30;99.90;;;;;;5113101;28;20465;-74
2022/12/20 07:49:43;;;;;;;22.57;11.97;;;3.30;99.90;;;;;;5112574;28;20036;-75
2022/12/20 07:52:11;;;;;;;20.67;12.23;;;3.30;99.90;;;;;;5111834;28;20024;-74
2022/12/20 07:54:42;;;;;;;22.50;11.90;;;3.40;99.90;;;;;;5111729;28;20070;-74
2022/12/20 07:57:20;;;;;;;20.43;11.30;;;3.40;99.90;;;;;;5116945;28;20024;-74
2022/12/20 07:59:53;;;;;;;19.10;11.47;;;3.40;99.90;;;;;;5116794;28;20457;-75
2022/12/20 08:02:27;;;;;;;24.83;11.87;;;3.40;99.90;;;;;;5116879;28;20024;-74
2022/12/20 08:04:55;;;;;;;21.33;11.30;;;3.50;99.90;;;;;;5115336;28;20088;-75
2022/12/20 08:07:21;;;;;;;22.97;11.60;;;3.50;99.90;;;;;;5116873;28;20027;-74
2022/12/20 08:09:47;;;;;;;22.20;11.53;;;3.50;99.90;;;;;;5114959;28;20031;-75
2022/12/20 08:12:15;;;;;;;20.63;11.70;;;3.50;99.90;;;;;;5116936;28;20027;-74
2022/12/20 08:14:41;;;;;;;23.77;12.30;;;3.50;99.90;;;;;;5114881;28;20039;-78
2022/12/20 08:17:07;;;;;;;22.77;12.63;;;3.50;99.90;;;;;;5115326;28;20043;-74
2022/12/20 08:19:33;;;;;;;21.50;11.73;;;3.60;99.90;;;;;;5115520;28;20384;-74
2022/12/20 08:21:58;;;;;;;23.33;12.60;;;3.60;99.90;;;;;;5115902;28;20020;-74
2022/12/20 08:24:24;;;;;;;24.50;12.00;;;3.60;99.90;;;;;;5115352;28;20070;-74
2022/12/20 08:26:49;;;;;;;23.53;11.80;;;3.60;99.90;;;;;;5114969;28;20039;-74
2022/12/20 08:29:15;;;;;;;22.83;11.77;;;3.60;99.90;;;;;;5116587;28;20471;-74
2022/12/20 08:31:41;;;;;;;22.37;12.73;;;3.70;99.90;;;;;;5115085;28;20118;-76
2022/12/20 08:34:07;;;;;;;27.33;12.70;;;3.70;99.90;;;;;;5114898;28;20110;-74
2022/12/20 08:36:33;;;;;;;23.70;11.47;;;3.70;99.90;;;;;;5114909;28;20038;-74
2022/12/20 08:39:04;;;;;;;24.40;12.03;;;3.70;99.90;;;;;;5114533;28;20395;-74
2022/12/20 08:41:30;;;;;;;21.83;11.98;;;3.80;99.90;;;;;;5116495;28;20080;-74
2022/12/20 08:43:56;;;;;;;20.00;11.63;;;3.80;99.90;;;;;;5114419;28;20415;-74
2022/12/20 08:46:22;;;;;;;21.93;11.90;;;3.80;99.90;;;;;;5115183;28;20024;-74
2022/12/20 08:48:47;;;;;;;21.67;11.87;;;3.80;99.90;;;;;;5113954;28;20028;-75
2022/12/20 08:51:13;;;;;;;19.90;11.40;;;3.80;99.90;;;;;;5116163;28;20106;-74
2022/12/20 08:53:39;;;;;;;24.73;12.63;;;3.80;99.90;;;;;;5114943;28;20119;-74
2022/12/20 08:56:08;;;;;;;22.30;11.60;;;3.80;99.90;;;;;;5114408;28;20055;-74
2022/12/20 08:58:34;;;;;;;23.57;11.43;;;3.90;99.90;;;;;;5103158;28;20012;-74
2022/12/20 09:01:02;;;;;;;20.73;11.73;;;3.80;99.90;;;;;;5115608;28;20016;-75
2022/12/20 09:03:32;;;;;;;19.83;11.33;;;3.90;99.90;;;;;;5110085;28;20024;-74
2022/12/20 09:05:59;;;;;;;19.93;12.03;;;3.90;99.90;;;;;;5113305;28;20468;-76
2022/12/20 09:08:24;;;;;;;21.43;11.20;;;4.10;99.90;;;;;;5110214;28;20016;-74
2022/12/20 09:10:51;;;;;;;21.63;11.20;;;4.20;99.90;;;;;;5105768;28;20469;-75
2022/12/20 09:13:17;;;;;;;21.83;10.93;;;4.30;99.90;;;;;;5095221;28;20541;-75
2022/12/20 09:15:44;;;;;;;19.17;10.73;;;4.30;99.90;;;;;;5093615;28;20036;-77
2022/12/20 09:18:09;;;;;;;18.73;10.77;;;4.30;99.90;;;;;;5096474;28;20044;-74
2022/12/20 09:20:35;;;;;;;20.90;11.20;;;4.40;99.90;;;;;;5114197;28;20112;-75
2022/12/20 09:23:01;;;;;;;21.53;10.43;;;4.30;99.90;;;;;;5113412;28;20020;-75
2022/12/20 09:25:27;;;;;;;21.13;10.60;;;4.40;99.90;;;;;;5102429;28;20024;-74
2022/12/20 09:27:56;;;;;;;27.60;13.43;;;4.40;99.90;;;;;;5108909;28;20476;-76
2022/12/20 09:30:23;;;;;;;26.87;12.90;;;4.40;99.90;;;;;;5114802;28;20452;-74
2022/12/20 09:32:48;;;;;;;24.87;12.33;;;4.50;99.90;;;;;;5105643;28;20105;-75
2022/12/20 09:35:14;;;;;;;24.77;12.93;;;4.60;99.90;;;;;;5105142;28;20055;-74
2022/12/20 09:37:40;;;;;;;23.07;12.60;;;4.60;99.90;;;;;;5099027;28;20031;-74
2022/12/20 09:40:10;;;;;;;26.00;12.17;;;4.70;99.90;;;;;;5111887;28;20582;-74
2022/12/20 09:42:36;;;;;;;22.83;11.20;;;4.70;99.90;;;;;;5108264;28;20016;-74
2022/12/20 09:45:08;;;;;;;22.43;11.37;;;4.70;99.90;;;;;;5101469;28;20354;-75
2022/12/20 09:47:35;;;;;;;19.47;10.40;;;4.70;99.90;;;;;;5113141;28;20071;-74
2022/12/20 09:50:02;;;;;;;17.70;9.90;;;4.80;99.90;;;;;;5096508;28;20381;-74
2022/12/20 09:52:54;;;;;;;20.10;11.07;;;4.80;99.90;;;;;;5094380;28;20026;-74
2022/12/20 09:55:29;;;;;;;19.67;11.15;;;4.90;99.90;;;;;;5092951;28;20028;-74
2022/12/20 09:58:17;;;;;;;17.33;10.20;;;5.00;99.90;;;;;;5099364;28;20404;-75
2022/12/20 10:00:45;;;;;;;20.83;11.03;;;5.10;99.90;;;;;;5099321;28;20020;-74
2022/12/20 10:03:31;;;;;;;18.73;9.60;;;5.00;99.90;;;;;;5113169;28;20067;-74
2022/12/20 10:06:19;;;;;;;17.23;9.83;;;5.00;99.90;;;;;;5096062;28;20097;-74
2022/12/20 10:08:57;;;;;;;18.83;10.03;;;5.00;99.90;;;;;;5099387;28;20101;-75
2022/12/20 10:12:16;;;;;;;20.30;10.23;;;4.90;99.90;;;;;;5100917;28;20078;-74
2022/12/20 10:15:00;;;;;;;19.43;9.63;;;4.90;99.90;;;;;;5079384;28;20516;-74
2022/12/20 10:17:32;;;;;;;17.73;9.60;;;4.90;99.90;;;;;;5104698;28;20484;-74
2022/12/20 10:20:07;;;;;;;15.43;6.97;;;4.90;99.90;;;;;;5094527;28;20135;-74
2022/12/20 10:22:40;;;;;;;17.03;9.50;;;5.00;99.90;;;;;;5092458;28;20519;-74
2022/12/20 10:25:21;;;;;;;18.93;8.73;;;5.10;99.90;;;;;;5092170;28;20032;-74
2022/12/20 10:27:49;;;;;;;15.40;9.40;;;5.30;99.90;;;;;;5103303;28;20084;-78
2022/12/20 10:30:19;;;;;;;17.07;8.77;;;5.40;99.90;;;;;;5114066;28;20058;-74
2022/12/20 10:32:47;;;;;;;14.30;8.67;;;5.60;99.90;;;;;;5112728;28;20024;-76
2022/12/20 10:35:23;;;;;;;17.37;9.57;;;5.60;99.90;;;;;;5113821;28;20252;-74
2022/12/20 10:38:05;;;;;;;20.07;9.17;;;5.60;99.90;;;;;;5096042;28;20503;-74
2022/12/20 10:40:35;;;;;;;17.52;7.85;;;5.70;99.90;;;;;;5092175;28;20046;-74
2022/12/20 10:43:03;;;;;;;17.13;8.57;;;5.80;99.90;;;;;;5099859;28;20035;-75
2022/12/20 10:45:41;;;;;;;16.00;8.93;;;5.80;99.90;;;;;;5112291;28;20031;-74
2022/12/20 10:48:45;;;;;;;12.20;8.00;;;5.80;99.90;;;;;;5109711;28;20160;-75
2022/12/20 10:51:16;;;;;;;16.97;9.03;;;5.80;99.90;;;;;;5100580;28;20111;-74
2022/12/20 10:53:57;;;;;;;11.95;6.70;;;5.70;99.90;;;;;;5111096;28;20032;-74
2022/12/20 10:56:26;;;;;;;14.00;8.67;;;5.80;99.90;;;;;;5095495;28;20395;-74
2022/12/20 10:59:22;;;;;;;15.27;9.20;;;5.70;99.90;;;;;;5111249;28;20027;-75
2022/12/20 11:01:49;;;;;;;18.93;9.00;;;5.70;99.90;;;;;;5113334;28;20077;-75
2022/12/20 11:04:26;;;;;;;20.47;10.87;;;5.70;99.90;;;;;;5092855;28;20036;-74
2022/12/20 11:06:52;;;;;;;17.67;9.30;;;5.70;99.90;;;;;;5092375;28;20016;-75
2022/12/20 11:09:36;;;;;;;19.00;8.70;;;5.70;99.90;;;;;;5093066;28;20030;-74
2022/12/20 11:12:15;;;;;;;16.13;9.63;;;5.80;99.90;;;;;;5091847;28;20144;-74
2022/12/20 11:14:43;;;;;;;18.07;9.07;;;5.70;99.90;;;;;;5113629;28;20074;-74
2022/12/20 11:17:33;;;;;;;15.90;9.23;;;5.70;99.90;;;;;;5102136;28;20080;-74
2022/12/20 11:20:08;;;;;;;16.17;9.20;;;5.80;99.90;;;;;;5091367;28;20481;-74
2022/12/20 11:22:44;;;;;;;19.37;9.00;;;5.70;99.90;;;;;;5111983;28;20032;-75
2022/12/20 11:25:16;;;;;;;15.63;8.87;;;5.70;99.90;;;;;;5102344;28;20220;-74
2022/12/20 11:27:50;;;;;;;18.75;9.50;;;5.70;99.90;;;;;;5103513;28;20026;-74
2022/12/20 11:30:23;;;;;;;16.27;9.53;;;5.70;99.90;;;;;;5110819;28;20099;-74
2022/12/20 11:33:04;;;;;;;15.70;8.60;;;5.70;99.90;;;;;;5103866;28;20028;-75
2022/12/20 11:35:41;;;;;;;18.07;8.67;;;5.70;99.90;;;;;;5105741;28;20023;-74
2022/12/20 11:38:10;;;;;;;18.67;9.47;;;5.80;99.90;;;;;;5099006;28;20252;-74
2022/12/20 11:41:09;;;;;;;17.70;9.77;;;5.90;99.90;;;;;;5098134;28;20541;-75
2022/12/20 11:43:59;;;;;;;18.37;10.00;;;5.90;99.90;;;;;;5111584;28;20031;-75
2022/12/20 11:46:43;;;;;;;16.93;9.17;;;6.00;99.90;;;;;;5107648;28;20041;-74
2022/12/20 11:49:17;;;;;;;16.60;9.03;;;5.90;99.90;;;;;;5101643;28;20132;-74
2022/12/20 11:51:51;;;;;;;20.43;10.33;;;5.90;99.90;;;;;;5096725;28;20027;-74
2022/12/20 11:54:37;;;;;;;22.33;9.77;;;5.90;99.90;;;;;;5109050;28;20032;-74
2022/12/20 11:57:25;;;;;;;14.83;9.07;;;5.80;99.90;;;;;;5099711;28;20541;-74
2022/12/20 11:59:57;;;;;;;18.87;10.10;;;5.90;99.90;;;;;;5110649;28;20480;-74
2022/12/20 12:02:52;;;;;;;16.15;9.57;;;5.90;99.90;;;;;;5095975;28;20277;-74
2022/12/20 12:05:33;;;;;;;16.80;9.13;;;5.90;99.90;;;;;;5100069;28;20040;-74
2022/12/20 12:08:04;;;;;;;18.60;9.97;;;6.00;99.90;;;;;;5108329;28;20174;-76
2022/12/20 12:10:42;;;;;;;19.97;10.03;;;6.00;99.90;;;;;;5097194;28;20424;-74
2022/12/20 12:13:22;;;;;;;18.50;9.10;;;6.00;99.90;;;;;;5100660;28;20103;-75
2022/12/20 12:15:57;;;;;;;23.47;9.83;;;6.00;99.90;;;;;;5091067;28;20074;-74
2022/12/20 12:18:31;;;;;;;17.53;9.57;;;6.00;99.90;;;;;;5093917;28;20063;-74
2022/12/20 12:21:23;;;;;;;18.90;9.90;;;6.00;99.90;;;;;;5102274;28;20783;-74
2022/12/20 12:24:26;;;;;;;22.58;10.13;;;6.00;99.90;;;;;;5106398;28;20026;-78
2022/12/20 12:26:52;;;;;;;18.30;9.90;;;6.00;99.90;;;;;;5091643;28;20039;-75
2022/12/20 12:29:20;;;;;;;21.60;11.57;;;6.00;99.90;;;;;;5102852;28;20377;-74
2022/12/20 12:31:54;;;;;;;21.60;11.47;;;6.00;99.90;;;;;;5111150;28;20449;-74
2022/12/20 12:34:28;;;;;;;20.30;11.83;;;6.00;99.90;;;;;;5107689;28;20032;-74
2022/12/20 12:37:39;;;;;;;20.43;11.67;;;6.00;99.90;;;;;;5098185;28;20047;-74
2022/12/20 12:40:29;;;;;;;19.63;10.97;;;6.00;99.90;;;;;;5090324;28;20036;-74
2022/12/20 12:43:04;;;;;;;18.43;10.33;;;6.00;99.90;;;;;;5105478;28;20028;-75
2022/12/20 12:45:57;;;;;;;19.43;10.23;;;6.00;99.90;;;;;;5107758;28;20035;-74
2022/12/20 12:48:29;;;;;;;18.20;9.67;;;6.00;99.90;;;;;;5101983;28;20544;-75
2022/12/20 12:50:56;;;;;;;21.33;11.45;;;6.00;99.90;;;;;;5101765;28;20464;-74
2022/12/20 12:53:31;;;;;;;19.60;9.97;;;6.00;99.90;;;;;;5114376;28;20036;-74
2022/12/20 12:55:57;;;;;;;19.20;10.63;;;6.00;99.90;;;;;;5114298;28;20071;-75
2022/12/20 12:58:23;;;;;;;17.17;9.73;;;6.00;99.90;;;;;;5109978;28;20468;-74